San Aurelio — A8PC9 — position and weather

sailwx.info

Track history (hours):
 
Tides and Currents Weather Stations Pressure Air Temp Water Temp Dewpoint Dewpoint Depression Visibility Wind Speed Wind Dir Waves Ship Positions

San Aurelio

Last reported at 2014-Aug-18 18:00 UTC. Time now 2014-Aug-20 08:49 UTC.
Position N 01°24' E 105°18'.

Length 186 m; draft 8.4 m.

Type: Cargo ship. MMSI: 636091534.

Wind from 130 at 10 knots

Barometer 1011.0 mb
Air temperature 28.0 ° C
Visibility: greater than 5.4 NM
Dewpoint 23.9 ° C

Date/timePositionNaut miles runAvg speedWind from/ knotsBaromVisibWave heightAir tempDewpointWater temp
2014-Aug-18 18:00N 01°24' E 105°18'7213.3 130 / 101011.0 5.4 28.023.9
2014-Aug-18 12:33N 01°15' E 104°06'1616.0
2014-Aug-18 11:33N 01°11' E 103°50'11 0.3
2014-Aug-17 02:28N 01°11' E 103°39'1212.8
2014-Aug-17 01:33N 01°12' E 103°51'4 4.0
2014-Aug-17 00:31N 01°16' E 103°50'0 0.0
2014-Aug-16 23:28N 01°16' E 103°50'0 0.0
2014-Aug-16 22:28N 01°16' E 103°50'0 0.0
2014-Aug-16 21:28N 01°16' E 103°50'0 0.0
2014-Aug-16 20:31N 01°16' E 103°50'0 0.0
2014-Aug-16 19:31N 01°16' E 103°50'0 0.0
2014-Aug-16 18:31N 01°16' E 103°50'0 0.0
2014-Aug-16 17:19N 01°16' E 103°50'0 0.0
2014-Aug-16 16:31N 01°16' E 103°50'0 0.0
2014-Aug-16 15:31N 01°16' E 103°50'0 0.0
2014-Aug-16 14:31N 01°16' E 103°50'0 0.0
2014-Aug-16 13:31N 01°16' E 103°50'0 0.0
2014-Aug-16 12:31N 01°16' E 103°50'0 0.0
2014-Aug-16 11:31N 01°16' E 103°50'0 0.0
2014-Aug-16 10:25N 01°16' E 103°50'0 0.0
2014-Aug-16 09:31N 01°16' E 103°50'0 0.0
2014-Aug-16 08:28N 01°16' E 103°50'0 0.0
2014-Aug-16 07:31N 01°16' E 103°50'0 0.0
2014-Aug-16 06:28N 01°16' E 103°50'0 0.0
2014-Aug-16 05:34N 01°16' E 103°50'4 4.5
2014-Aug-16 04:34N 01°14' E 103°54'5 5.4
2014-Aug-16 03:34N 01°15' E 103°59'6 6.3
2014-Aug-16 02:33N 01°17' E 104°05'6 6.0
2014-Aug-16 01:31N 01°17' E 104°12'9112.1
2014-Aug-15 18:00N 01°24' E 105°42'87 7.3 180 / 101012.0 5.4 25.023.6
2014-Aug-15 06:00N 02°48' E 106°06'21627.0 160 / 61009.510.8 0.528.519.9
2014-Aug-14 22:00N 04°00' E 109°30'25115.7 240 / 101012.0 2.2 26.523.028.5
2014-Aug-14 06:00N 06°18' E 113°00'17514.6 200 / 81011.510.8 28.022.4
2014-Aug-13 18:00N 07°12' E 115°48'   40.0
Track history (hours):
 
Tides and Currents Weather Stations Pressure Air Temp Water Temp Dewpoint Dewpoint Depression Visibility Wind Speed Wind Dir Waves Ship Positions

San Aurelio

Last reported at 2014-Aug-18 18:00 UTC. Time now 2014-Aug-20 08:49 UTC.
Position N 01°24' E 105°18'.

Length 186 m; draft 8.4 m.

Type: Cargo ship. MMSI: 636091534.

Wind from 130 at 10 knots

Barometer 1011.0 mb
Air temperature 28.0 ° C
Visibility: greater than 5.4 NM
Dewpoint 23.9 ° C

Date/timePositionNaut miles runAvg speedWind from/ knotsBaromVisibWave heightAir tempDewpointWater temp
2014-Aug-18 18:00N 01°24' E 105°18'7213.3 130 / 101011.0 5.4 28.023.9
2014-Aug-18 12:33N 01°15' E 104°06'1616.0
2014-Aug-18 11:33N 01°11' E 103°50'11 0.3
2014-Aug-17 02:28N 01°11' E 103°39'1212.8
2014-Aug-17 01:33N 01°12' E 103°51'4 4.0
2014-Aug-17 00:31N 01°16' E 103°50'0 0.0
2014-Aug-16 23:28N 01°16' E 103°50'0 0.0
2014-Aug-16 22:28N 01°16' E 103°50'0 0.0
2014-Aug-16 21:28N 01°16' E 103°50'0 0.0
2014-Aug-16 20:31N 01°16' E 103°50'0 0.0
2014-Aug-16 19:31N 01°16' E 103°50'0 0.0
2014-Aug-16 18:31N 01°16' E 103°50'0 0.0
2014-Aug-16 17:19N 01°16' E 103°50'0 0.0
2014-Aug-16 16:31N 01°16' E 103°50'0 0.0
2014-Aug-16 15:31N 01°16' E 103°50'0 0.0
2014-Aug-16 14:31N 01°16' E 103°50'0 0.0
2014-Aug-16 13:31N 01°16' E 103°50'0 0.0
2014-Aug-16 12:31N 01°16' E 103°50'0 0.0
2014-Aug-16 11:31N 01°16' E 103°50'0 0.0
2014-Aug-16 10:25N 01°16' E 103°50'0 0.0
2014-Aug-16 09:31N 01°16' E 103°50'0 0.0
2014-Aug-16 08:28N 01°16' E 103°50'0 0.0
2014-Aug-16 07:31N 01°16' E 103°50'0 0.0
2014-Aug-16 06:28N 01°16' E 103°50'0 0.0
2014-Aug-16 05:34N 01°16' E 103°50'4 4.5
2014-Aug-16 04:34N 01°14' E 103°54'5 5.4
2014-Aug-16 03:34N 01°15' E 103°59'6 6.3
2014-Aug-16 02:33N 01°17' E 104°05'6 6.0
2014-Aug-16 01:31N 01°17' E 104°12'9112.1
2014-Aug-15 18:00N 01°24' E 105°42'87 7.3 180 / 101012.0 5.4 25.023.6
2014-Aug-15 06:00N 02°48' E 106°06'21627.0 160 / 61009.510.8 0.528.519.9
2014-Aug-14 22:00N 04°00' E 109°30'25115.7 240 / 101012.0 2.2 26.523.028.5
2014-Aug-14 06:00N 06°18' E 113°00'17514.6 200 / 81011.510.8 28.022.4
2014-Aug-13 18:00N 07°12' E 115°48'   40.0

Dump ship's entire track history